This is the latest recevied weather packets stored in our database for station/object XE2B-20. If no packets are shown the sender has not sent any weather packets the latest 10 day(s).
| Time | Temp. | Humidity | Pressure | Rain* | Wind** | Luminosity | Snow |
|---|---|---|---|---|---|---|---|
| 1777740207 | 30° C | 16% | 805.5 hPa | - | - | - | - |
| 1777738709 | 30.56° C | 16% | 805.4 hPa | - | - | - | - |
| 1777737210 | 30.56° C | 16% | 805.5 hPa | - | - | - | - |
| 1777735708 | 30.56° C | 15% | 805.5 hPa | - | - | - | - |
| 1777734207 | 28.89° C | 15% | 805.4 hPa | - | - | - | - |
| 1777732709 | 28.33° C | 15% | 805.3 hPa | - | - | - | - |
| 1777731210 | 27.22° C | 15% | 805.2 hPa | - | - | - | - |
| 1777729710 | 23.89° C | 17% | 805.1 hPa | - | - | - | - |
| 1777728211 | 22.22° C | 17% | 804.8 hPa | - | - | - | - |
| 1777726711 | 17.78° C | 20% | 804.6 hPa | - | - | - | - |
| 1777725212 | 12.78° C | 24% | 804.3 hPa | - | - | - | - |
| 1777723713 | 12.78° C | 25% | 804.1 hPa | - | - | - | - |
| 1777722222 | 14.44° C | 23% | 803.8 hPa | - | - | - | - |
| 1777720715 | 14.44° C | 23% | 803.6 hPa | - | - | - | - |
| 1777719216 | 15° C | 23% | 803.7 hPa | - | - | - | - |
| 1777717718 | 15.56° C | 22% | 803.7 hPa | - | - | - | - |
| 1777716219 | 16.11° C | 22% | 803.6 hPa | - | - | - | - |
| 1777714721 | 17.78° C | 21% | 803.5 hPa | - | - | - | - |
| 1777713222 | 18.89° C | 20% | 803.6 hPa | - | - | - | - |
| 1777711723 | 19.44° C | 20% | 803.4 hPa | - | - | - | - |
| 1777710224 | 19.44° C | 20% | 803.5 hPa | - | - | - | - |
| 1777708725 | 19.44° C | 20% | 803.4 hPa | - | - | - | - |
| 1777707226 | 19.44° C | 20% | 803.4 hPa | - | - | - | - |
| 1777705726 | 20° C | 19% | 803.7 hPa | - | - | - | - |
| 1777704226 | 19.44° C | 19% | 803.8 hPa | - | - | - | - |
* Rain since midnight (hover to see other rain measurements)
** Current wind speed in m/s (hover to see current wind gust speed)